Time;durP1;ratioP1;P1;durP2;ratioP2;P2;SDS_P1;SDS_P2;PMS_P1;PMS_P2;Temp;Humidity;BMP_temperature;BMP_pressure;BME280_temperature;BME280_humidity;BME280_pressure;Samples;Min_cycle;Max_cycle;Signal;HPM_P1;HPM_P2
2021/04/30 00:01:19;;;;;;;20.60;14.53;;;7.60;97.20;;;;;;6121170;23;20459;-85
2021/04/30 00:03:46;;;;;;;21.03;14.33;;;7.50;97.70;;;;;;6144982;23;20445;-83
2021/04/30 00:06:14;;;;;;;19.40;14.37;;;7.50;98.00;;;;;;6146637;23;20439;-85
2021/04/30 00:08:41;;;;;;;20.17;14.73;;;7.40;98.50;;;;;;6146131;23;20448;-84
2021/04/30 00:11:09;;;;;;;23.67;15.27;;;7.30;98.80;;;;;;6131430;23;20437;-85
2021/04/30 00:13:36;;;;;;;25.13;15.60;;;7.30;99.10;;;;;;6134468;23;20441;-85
2021/04/30 00:16:03;;;;;;;22.77;15.87;;;7.30;99.20;;;;;;6139289;23;20465;-85
2021/04/30 00:18:30;;;;;;;20.87;15.73;;;7.30;99.30;;;;;;6119255;23;20441;-85
2021/04/30 00:20:59;;;;;;;22.80;15.77;;;7.30;99.10;;;;;;6131734;23;20444;-85
2021/04/30 00:23:28;;;;;;;24.00;15.40;;;7.30;99.20;;;;;;6139261;23;20492;-85
2021/04/30 00:25:55;;;;;;;21.13;14.83;;;7.30;99.50;;;;;;6133208;23;20983;-85
2021/04/30 00:28:24;;;;;;;27.77;17.47;;;7.20;99.70;;;;;;6123850;23;20441;-86
2021/04/30 00:30:52;;;;;;;22.83;15.37;;;7.10;99.70;;;;;;6141550;23;20445;-85
2021/04/30 00:33:20;;;;;;;25.07;14.97;;;7.10;99.80;;;;;;6143417;23;20448;-86
2021/04/30 00:35:47;;;;;;;28.33;16.70;;;7.10;99.80;;;;;;6145999;23;20445;-85
2021/04/30 00:38:14;;;;;;;21.43;14.40;;;7.20;99.70;;;;;;6144556;23;20440;-86
2021/04/30 00:40:42;;;;;;;23.80;16.00;;;7.20;99.70;;;;;;6138994;23;20522;-85
2021/04/30 00:43:10;;;;;;;24.10;16.60;;;7.10;99.80;;;;;;6140538;23;20969;-85
2021/04/30 00:45:37;;;;;;;23.00;15.73;;;7.00;99.80;;;;;;6143876;23;20962;-85
2021/04/30 00:48:06;;;;;;;24.10;16.47;;;7.00;99.80;;;;;;6144244;23;20444;-86
2021/04/30 00:50:33;;;;;;;22.73;15.30;;;6.90;99.80;;;;;;6147997;23;20528;-86
2021/04/30 00:53:00;;;;;;;22.20;15.03;;;6.90;99.80;;;;;;6134936;23;20839;-86
2021/04/30 00:55:27;;;;;;;20.40;15.23;;;6.90;99.80;;;;;;6100434;23;20947;-85
2021/04/30 00:57:57;;;;;;;25.63;15.93;;;6.90;99.80;;;;;;6145606;23;20451;-85
2021/04/30 01:00:26;;;;;;;24.37;16.40;;;6.80;99.80;;;;;;6096147;23;20797;-85
2021/04/30 01:02:54;;;;;;;21.67;15.57;;;6.80;99.80;;;;;;6103774;23;20782;-85
2021/04/30 01:05:22;;;;;;;24.50;14.70;;;6.70;99.80;;;;;;6139053;23;20529;-86
2021/04/30 01:07:49;;;;;;;22.57;16.03;;;6.70;99.80;;;;;;6132573;23;20465;-85
2021/04/30 01:10:16;;;;;;;29.10;16.00;;;6.70;99.80;;;;;;6127298;23;20536;-85
2021/04/30 01:12:44;;;;;;;25.30;15.90;;;6.70;99.80;;;;;;6115013;23;20460;-85
2021/04/30 01:15:15;;;;;;;28.00;15.93;;;6.70;99.80;;;;;;6129864;23;20436;-85
2021/04/30 01:17:42;;;;;;;24.57;16.67;;;6.60;99.80;;;;;;6150616;23;20520;-85
2021/04/30 01:20:11;;;;;;;28.00;16.67;;;6.60;99.80;;;;;;6148178;23;20509;-85
2021/04/30 01:22:40;;;;;;;21.13;15.27;;;6.60;99.80;;;;;;6142272;23;20448;-85
2021/04/30 01:25:09;;;;;;;29.03;16.57;;;6.50;99.80;;;;;;6135329;23;21008;-85
2021/04/30 01:27:36;;;;;;;24.33;15.47;;;6.40;99.80;;;;;;6107261;23;20456;-85
2021/04/30 01:30:05;;;;;;;24.83;16.00;;;6.40;99.80;;;;;;6133200;23;20447;-86
2021/04/30 01:32:32;;;;;;;22.40;15.73;;;6.40;99.80;;;;;;6142545;23;21019;-86
2021/04/30 01:35:00;;;;;;;21.57;15.83;;;6.30;99.80;;;;;;6136542;23;20440;-86
2021/04/30 01:37:27;;;;;;;23.33;15.60;;;6.30;99.80;;;;;;6137084;23;20986;-86
2021/04/30 01:39:54;;;;;;;26.70;16.07;;;6.20;99.80;;;;;;6145371;23;20503;-86
2021/04/30 01:42:21;;;;;;;25.77;15.77;;;6.20;99.80;;;;;;6141515;23;20478;-85
2021/04/30 01:44:49;;;;;;;23.60;15.63;;;6.30;99.80;;;;;;6140312;23;20829;-85
2021/04/30 01:47:16;;;;;;;19.40;14.60;;;6.40;99.80;;;;;;6146636;23;20440;-84
2021/04/30 01:49:44;;;;;;;27.70;17.40;;;6.40;99.80;;;;;;6150461;23;20444;-84
2021/04/30 01:52:11;;;;;;;24.63;15.83;;;6.40;99.80;;;;;;6147722;23;20442;-84
2021/04/30 01:54:38;;;;;;;21.20;14.77;;;6.40;99.80;;;;;;6145929;23;20445;-85
2021/04/30 01:57:08;;;;;;;25.30;15.83;;;6.30;99.80;;;;;;6138764;23;21002;-85
2021/04/30 01:59:35;;;;;;;18.50;14.67;;;6.30;99.80;;;;;;6128118;23;20478;-85
2021/04/30 02:02:02;;;;;;;20.77;14.60;;;6.20;99.80;;;;;;6131231;23;20471;-84
2021/04/30 02:04:29;;;;;;;23.37;15.37;;;6.20;99.80;;;;;;6153530;23;20455;-84
2021/04/30 02:06:56;;;;;;;21.30;13.63;;;6.10;99.80;;;;;;6153562;23;20497;-85
2021/04/30 02:09:23;;;;;;;23.43;15.83;;;6.00;99.80;;;;;;6153744;23;21107;-85
2021/04/30 02:11:50;;;;;;;18.93;14.17;;;5.80;99.80;;;;;;6155095;23;20451;-85
2021/04/30 02:14:18;;;;;;;25.23;15.60;;;5.70;99.80;;;;;;6155102;23;20421;-84
2021/04/30 02:16:45;;;;;;;21.00;14.17;;;5.50;99.80;;;;;;6117460;23;20463;-85
2021/04/30 02:19:13;;;;;;;23.70;14.80;;;5.40;99.80;;;;;;6139442;23;21150;-85
2021/04/30 02:21:40;;;;;;;20.83;15.27;;;5.30;99.80;;;;;;6140988;23;20436;-85
2021/04/30 02:24:08;;;;;;;20.67;14.83;;;5.20;99.80;;;;;;6141599;23;21226;-85
2021/04/30 02:26:35;;;;;;;24.17;16.03;;;5.20;99.80;;;;;;6131405;23;20440;-85
2021/04/30 02:29:02;;;;;;;25.07;14.67;;;5.20;99.80;;;;;;6141720;23;20435;-84
2021/04/30 02:31:29;;;;;;;21.97;14.70;;;5.20;99.80;;;;;;6146528;23;21015;-85
2021/04/30 02:33:57;;;;;;;27.07;15.43;;;5.20;99.80;;;;;;6147107;23;20448;-85
2021/04/30 02:36:24;;;;;;;23.47;15.23;;;5.30;99.80;;;;;;6131718;23;20467;-84
2021/04/30 02:38:51;;;;;;;23.83;15.73;;;5.30;99.80;;;;;;6135802;23;20441;-85
2021/04/30 02:41:17;;;;;;;23.27;15.00;;;5.40;99.80;;;;;;6129641;23;20467;-84
2021/04/30 02:43:44;;;;;;;26.93;15.50;;;5.40;99.80;;;;;;6137593;23;20434;-85
2021/04/30 02:46:11;;;;;;;22.00;13.77;;;5.40;99.80;;;;;;6135093;23;20475;-86
2021/04/30 02:48:40;;;;;;;26.00;15.97;;;5.40;99.80;;;;;;6114761;23;20949;-85
2021/04/30 02:51:08;;;;;;;23.00;15.57;;;5.40;99.80;;;;;;6109286;23;20493;-85
2021/04/30 02:53:35;;;;;;;23.73;13.50;;;5.40;99.80;;;;;;6117655;23;20453;-85
2021/04/30 02:56:03;;;;;;;22.50;15.67;;;5.50;99.80;;;;;;6107969;23;20436;-85
2021/04/30 02:58:30;;;;;;;26.20;15.60;;;5.50;99.80;;;;;;6136660;23;21263;-85
2021/04/30 03:00:59;;;;;;;27.73;16.57;;;5.50;99.80;;;;;;6105225;23;20500;-86
2021/04/30 03:03:26;;;;;;;21.43;14.53;;;5.50;99.80;;;;;;6143460;23;20447;-86
2021/04/30 03:05:54;;;;;;;26.20;15.37;;;5.50;99.80;;;;;;6149683;23;20450;-85
2021/04/30 03:08:21;;;;;;;22.77;14.37;;;5.50;99.80;;;;;;6140373;23;20525;-85
2021/04/30 03:10:48;;;;;;;21.30;14.03;;;5.40;99.80;;;;;;6130758;23;20526;-85
2021/04/30 03:13:15;;;;;;;22.97;15.27;;;5.40;99.80;;;;;;6141430;23;21045;-85
2021/04/30 03:15:42;;;;;;;26.00;15.57;;;5.20;99.80;;;;;;6145698;23;20512;-83
2021/04/30 03:18:10;;;;;;;25.40;16.23;;;5.20;99.80;;;;;;6133763;23;20790;-85
2021/04/30 03:20:37;;;;;;;24.13;14.97;;;5.20;99.80;;;;;;6138084;23;20459;-83
2021/04/30 03:23:04;;;;;;;24.50;15.23;;;5.20;99.80;;;;;;6144213;23;20439;-85
2021/04/30 03:25:31;;;;;;;23.40;16.07;;;5.20;99.80;;;;;;6109330;23;20439;-85
2021/04/30 03:27:58;;;;;;;23.27;15.43;;;5.30;99.80;;;;;;6109508;23;20516;-85
2021/04/30 03:30:25;;;;;;;29.33;16.80;;;5.30;99.80;;;;;;6140511;23;20495;-85
2021/04/30 03:32:52;;;;;;;27.00;16.63;;;5.30;99.80;;;;;;6145381;23;20522;-86
2021/04/30 03:35:20;;;;;;;25.43;16.97;;;5.30;99.80;;;;;;6146751;23;20501;-86
2021/04/30 03:37:48;;;;;;;27.67;16.97;;;5.20;99.80;;;;;;6149286;23;20825;-86
2021/04/30 03:40:16;;;;;;;24.10;15.43;;;5.20;99.80;;;;;;6126258;23;20960;-85
2021/04/30 03:42:43;;;;;;;27.50;17.30;;;5.20;99.80;;;;;;6132027;23;20443;-85
2021/04/30 03:45:12;;;;;;;28.27;16.07;;;5.10;99.80;;;;;;6134724;23;20436;-85
2021/04/30 03:47:39;;;;;;;26.93;16.73;;;5.00;99.80;;;;;;6147013;23;20980;-85
2021/04/30 03:50:06;;;;;;;23.13;15.53;;;4.90;99.80;;;;;;6137701;23;20439;-86
2021/04/30 03:52:33;;;;;;;27.00;16.20;;;4.90;99.80;;;;;;6142757;23;20519;-86
2021/04/30 03:55:00;;;;;;;28.90;16.33;;;5.00;99.80;;;;;;6122150;23;20435;-85
2021/04/30 03:57:28;;;;;;;25.37;16.27;;;5.00;99.80;;;;;;6134239;23;20853;-85
2021/04/30 03:59:55;;;;;;;25.80;16.77;;;5.00;99.80;;;;;;6119801;23;20455;-85
2021/04/30 04:02:22;;;;;;;25.67;16.57;;;5.00;99.80;;;;;;6127308;23;20440;-85
2021/04/30 04:04:49;;;;;;;25.63;15.80;;;5.00;99.80;;;;;;6147405;23;20939;-85
2021/04/30 04:07:16;;;;;;;26.30;16.87;;;5.00;99.80;;;;;;6144103;23;20435;-86
2021/04/30 04:09:43;;;;;;;26.70;16.43;;;5.00;99.80;;;;;;6133092;23;20443;-86
2021/04/30 04:12:10;;;;;;;26.80;18.07;;;5.00;99.80;;;;;;6132344;23;20465;-86
2021/04/30 04:14:41;;;;;;;26.13;16.33;;;4.90;99.80;;;;;;6130124;23;20446;-86
2021/04/30 04:17:08;;;;;;;25.97;16.27;;;4.90;99.80;;;;;;6144932;23;20522;-86
2021/04/30 04:19:52;;;;;;;29.63;18.20;;;4.80;99.80;;;;;;6144543;23;20493;-86
2021/04/30 04:22:20;;;;;;;27.53;17.57;;;4.80;99.80;;;;;;6124951;23;20946;-86
2021/04/30 04:24:47;;;;;;;25.97;16.63;;;4.90;99.80;;;;;;6127268;23;20442;-86
2021/04/30 04:27:14;;;;;;;24.63;15.57;;;4.90;99.80;;;;;;6130660;23;20957;-87
2021/04/30 04:29:42;;;;;;;27.87;17.20;;;5.00;99.80;;;;;;6126034;23;20470;-86
2021/04/30 04:32:09;;;;;;;22.60;14.53;;;5.20;99.80;;;;;;6133520;23;20443;-86
2021/04/30 04:34:37;;;;;;;28.47;16.87;;;5.30;99.80;;;;;;6137395;23;20471;-86
2021/04/30 04:37:04;;;;;;;28.40;15.53;;;5.30;99.80;;;;;;6121511;23;20439;-86
2021/04/30 04:39:32;;;;;;;22.20;14.97;;;5.30;99.80;;;;;;6120966;23;20435;-87
2021/04/30 04:42:00;;;;;;;23.70;15.10;;;5.30;99.80;;;;;;6094594;23;20475;-86
2021/04/30 04:44:30;;;;;;;29.20;16.13;;;5.30;99.80;;;;;;6121792;23;20453;-86
2021/04/30 04:46:58;;;;;;;27.50;16.73;;;5.20;99.80;;;;;;6142668;23;20443;-86
2021/04/30 04:49:26;;;;;;;22.93;14.90;;;5.20;99.80;;;;;;6142455;23;20772;-86
2021/04/30 04:51:53;;;;;;;27.10;16.03;;;5.10;99.80;;;;;;6143878;23;20442;-87
2021/04/30 04:54:21;;;;;;;25.63;16.00;;;5.00;99.80;;;;;;6131057;23;20527;-86
2021/04/30 04:56:48;;;;;;;27.40;16.90;;;5.00;99.80;;;;;;6129059;23;20493;-86
2021/04/30 04:59:15;;;;;;;25.60;15.33;;;5.20;99.80;;;;;;6117338;23;20977;-86
2021/04/30 05:01:42;;;;;;;22.20;15.27;;;5.30;99.80;;;;;;6124789;23;20439;-86
2021/04/30 05:04:13;;;;;;;26.30;17.03;;;5.40;99.80;;;;;;6089292;23;20446;-86
2021/04/30 05:06:41;;;;;;;23.73;16.10;;;5.60;99.80;;;;;;6119619;23;20471;-86
2021/04/30 05:09:08;;;;;;;22.60;15.63;;;5.80;99.80;;;;;;6115560;23;20435;-86
2021/04/30 05:11:35;;;;;;;27.10;16.77;;;5.90;99.80;;;;;;6109265;23;20935;-86
2021/04/30 05:14:03;;;;;;;26.37;16.30;;;6.10;99.80;;;;;;6132823;23;20474;-86
2021/04/30 05:16:30;;;;;;;28.77;16.90;;;6.20;99.80;;;;;;6144896;23;20440;-87
2021/04/30 05:18:57;;;;;;;23.07;15.70;;;6.30;99.80;;;;;;6143146;23;20451;-86
2021/04/30 05:21:25;;;;;;;24.50;16.67;;;6.50;99.80;;;;;;6142240;23;20441;-86
2021/04/30 05:23:56;;;;;;;26.03;16.47;;;6.60;99.80;;;;;;6139953;23;20447;-87
2021/04/30 05:26:23;;;;;;;24.60;16.00;;;6.70;99.80;;;;;;6113562;23;20539;-87
2021/04/30 05:28:50;;;;;;;24.00;16.70;;;6.80;99.80;;;;;;6139364;23;20440;-87
2021/04/30 05:31:18;;;;;;;32.87;17.73;;;6.80;99.80;;;;;;6138629;23;20441;-87
2021/04/30 05:33:45;;;;;;;28.20;16.83;;;6.90;99.80;;;;;;6132535;23;20778;-86
2021/04/30 05:36:12;;;;;;;27.13;17.63;;;6.90;99.80;;;;;;6132116;23;20461;-87
2021/04/30 05:38:39;;;;;;;30.67;17.60;;;6.90;99.80;;;;;;6129011;23;20461;-86
2021/04/30 05:41:06;;;;;;;25.47;16.30;;;7.00;99.80;;;;;;6118257;23;20476;-86
2021/04/30 05:43:33;;;;;;;24.60;16.63;;;7.00;99.80;;;;;;6137343;23;20448;-87
2021/04/30 05:46:00;;;;;;;33.90;18.13;;;7.10;99.80;;;;;;6134474;23;20444;-86
2021/04/30 05:48:27;;;;;;;24.33;16.70;;;7.10;99.80;;;;;;6140422;23;20441;-87
2021/04/30 05:50:54;;;;;;;22.10;15.47;;;7.20;99.80;;;;;;6145266;23;20479;-87
2021/04/30 05:53:22;;;;;;;27.47;16.50;;;7.20;99.80;;;;;;6145543;23;20500;-87
2021/04/30 05:55:50;;;;;;;27.17;16.73;;;7.20;99.80;;;;;;6136830;23;20447;-86
2021/04/30 05:58:17;;;;;;;28.13;17.23;;;7.30;99.80;;;;;;6137296;23;20512;-84
2021/04/30 06:00:44;;;;;;;22.57;15.33;;;7.40;99.80;;;;;;6106751;23;20445;-85
2021/04/30 06:03:11;;;;;;;38.10;18.20;;;7.50;99.80;;;;;;6143497;23;20441;-85
2021/04/30 06:05:38;;;;;;;26.67;17.27;;;7.70;99.80;;;;;;6136279;23;20520;-84
2021/04/30 06:08:05;;;;;;;33.10;17.90;;;7.70;99.80;;;;;;6097202;23;20452;-85
2021/04/30 06:10:32;;;;;;;30.50;17.57;;;7.80;99.80;;;;;;6124258;23;20445;-85
2021/04/30 06:13:04;;;;;;;31.70;17.93;;;7.90;99.70;;;;;;6131314;23;20509;-85
2021/04/30 06:15:31;;;;;;;25.73;17.20;;;7.90;99.50;;;;;;6129211;23;20437;-85
2021/04/30 06:17:59;;;;;;;31.30;17.17;;;8.00;99.40;;;;;;6114350;23;20438;-84
2021/04/30 06:20:26;;;;;;;26.10;18.37;;;8.20;98.40;;;;;;6131504;23;21000;-87
2021/04/30 06:22:53;;;;;;;30.80;18.13;;;8.30;98.80;;;;;;6122441;23;20540;-85
2021/04/30 06:25:20;;;;;;;30.40;16.70;;;8.40;99.80;;;;;;6118490;23;20472;-83
2021/04/30 06:27:52;;;;;;;26.20;16.60;;;8.70;98.70;;;;;;6102915;23;20492;-83
2021/04/30 06:30:20;;;;;;;25.03;16.07;;;8.80;97.40;;;;;;6128919;23;20444;-80
2021/04/30 06:32:47;;;;;;;20.30;14.23;;;9.00;96.80;;;;;;6147420;23;20434;-79
2021/04/30 06:35:14;;;;;;;28.30;16.07;;;9.10;96.40;;;;;;6150774;23;20488;-80
2021/04/30 06:37:41;;;;;;;22.37;14.77;;;9.20;95.50;;;;;;6134894;23;20517;-82
2021/04/30 06:40:09;;;;;;;25.27;15.73;;;9.20;96.20;;;;;;6135428;23;21178;-80
2021/04/30 06:42:37;;;;;;;25.50;16.63;;;9.40;95.10;;;;;;6139375;23;20509;-82
2021/04/30 06:45:05;;;;;;;24.63;14.50;;;9.50;93.90;;;;;;6127998;23;20446;-82
2021/04/30 06:47:34;;;;;;;22.67;14.80;;;9.60;94.00;;;;;;6106766;23;20449;-83
2021/04/30 06:50:03;;;;;;;32.33;16.03;;;9.70;94.40;;;;;;6126710;23;20486;-82
2021/04/30 06:52:30;;;;;;;21.73;14.47;;;9.80;93.00;;;;;;6087799;23;20442;-82
2021/04/30 06:54:57;;;;;;;28.03;15.17;;;9.90;93.00;;;;;;6134364;23;20445;-83
2021/04/30 06:57:40;;;;;;;22.80;13.97;;;10.20;92.70;;;;;;6131921;23;20437;-82
2021/04/30 07:00:09;;;;;;;26.20;14.57;;;10.50;91.40;;;;;;6114016;23;20445;-83
2021/04/30 07:02:37;;;;;;;20.83;14.17;;;10.60;90.70;;;;;;6143241;23;20441;-83
2021/04/30 07:05:06;;;;;;;21.57;15.10;;;10.60;91.40;;;;;;6145810;23;20803;-83
2021/04/30 07:07:34;;;;;;;23.33;16.23;;;10.60;90.40;;;;;;6143782;23;20447;-83
2021/04/30 07:10:01;;;;;;;25.87;14.57;;;10.70;91.10;;;;;;6136723;23;20491;-83
2021/04/30 07:12:28;;;;;;;25.27;15.30;;;10.80;91.10;;;;;;6133080;23;20434;-84
2021/04/30 07:14:55;;;;;;;25.83;16.60;;;10.80;90.50;;;;;;6140557;23;20445;-83
2021/04/30 07:17:22;;;;;;;25.20;15.60;;;10.50;91.50;;;;;;6148716;23;20780;-82
2021/04/30 07:19:50;;;;;;;21.70;14.83;;;10.40;92.60;;;;;;6133165;23;20452;-82
2021/04/30 07:22:17;;;;;;;26.57;16.80;;;10.40;91.70;;;;;;6138131;23;20516;-83
2021/04/30 07:24:45;;;;;;;26.73;15.30;;;10.40;91.50;;;;;;6080298;23;20466;-84
2021/04/30 07:27:12;;;;;;;23.80;16.43;;;10.20;91.80;;;;;;6121227;23;20541;-84
2021/04/30 07:29:41;;;;;;;21.90;14.90;;;10.10;92.20;;;;;;6135450;23;20469;-83
2021/04/30 07:32:08;;;;;;;21.80;15.20;;;10.20;92.40;;;;;;6143623;23;20741;-82
2021/04/30 07:34:39;;;;;;;29.97;16.73;;;10.30;92.20;;;;;;6146978;23;20469;-83
2021/04/30 07:37:07;;;;;;;23.90;15.27;;;10.40;92.30;;;;;;6145001;23;20442;-83
2021/04/30 07:39:35;;;;;;;22.37;15.13;;;10.40;92.50;;;;;;6136474;23;20442;-83
2021/04/30 07:42:03;;;;;;;27.43;17.10;;;10.60;93.00;;;;;;6130584;23;20821;-83
2021/04/30 07:44:32;;;;;;;24.60;15.20;;;10.80;92.40;;;;;;6121948;23;20465;-82
2021/04/30 07:47:00;;;;;;;22.80;14.77;;;11.00;92.60;;;;;;6145457;23;20782;-82
2021/04/30 07:49:28;;;;;;;24.23;15.97;;;11.30;91.70;;;;;;6136913;23;20458;-82
2021/04/30 07:51:56;;;;;;;34.20;16.40;;;11.50;90.10;;;;;;6127250;23;20813;-83
2021/04/30 07:54:24;;;;;;;23.20;15.80;;;11.60;89.80;;;;;;6126113;23;20482;-82
2021/04/30 07:56:57;;;;;;;28.63;17.03;;;11.60;89.40;;;;;;6135295;23;21035;-82
2021/04/30 07:59:24;;;;;;;29.80;17.70;;;11.60;88.20;;;;;;6103133;23;20847;-82
2021/04/30 08:01:51;;;;;;;24.90;16.30;;;11.30;88.80;;;;;;6072275;23;21000;-82
2021/04/30 08:04:18;;;;;;;26.47;17.47;;;11.40;89.80;;;;;;6116623;23;20878;-83
2021/04/30 08:06:45;;;;;;;23.13;15.20;;;11.50;89.00;;;;;;6124654;23;20540;-81
2021/04/30 08:09:12;;;;;;;29.63;16.23;;;11.60;89.90;;;;;;6122275;23;20518;-82
2021/04/30 08:11:40;;;;;;;24.03;15.60;;;11.70;87.70;;;;;;6137337;23;20442;-83
2021/04/30 08:14:08;;;;;;;27.10;16.37;;;11.70;87.70;;;;;;6139805;23;20437;-83
2021/04/30 08:16:35;;;;;;;24.30;14.60;;;11.60;89.10;;;;;;6143326;23;21540;-82
2021/04/30 08:19:03;;;;;;;29.77;16.40;;;11.80;90.00;;;;;;6142927;23;20448;-82
2021/04/30 08:21:30;;;;;;;23.73;15.33;;;11.80;88.20;;;;;;6133693;23;20434;-82
2021/04/30 08:23:58;;;;;;;28.17;15.73;;;11.90;89.60;;;;;;6132451;23;20438;-83
2021/04/30 08:26:30;;;;;;;21.70;14.97;;;12.00;88.30;;;;;;6100341;23;20891;-82
2021/04/30 08:28:58;;;;;;;19.93;14.23;;;12.00;87.00;;;;;;6126346;23;20444;-83
2021/04/30 08:31:27;;;;;;;24.40;17.10;;;11.90;87.90;;;;;;6138823;23;20818;-82
2021/04/30 08:33:55;;;;;;;22.60;14.90;;;11.90;87.40;;;;;;6127583;23;20431;-82
2021/04/30 08:36:22;;;;;;;26.20;16.07;;;11.80;89.00;;;;;;6123059;23;20611;-82
2021/04/30 08:38:49;;;;;;;32.57;18.70;;;11.80;88.70;;;;;;6139620;23;20814;-82
2021/04/30 08:41:17;;;;;;;25.37;17.33;;;11.90;89.60;;;;;;6134100;23;20449;-83
2021/04/30 08:43:46;;;;;;;27.70;16.47;;;12.10;88.90;;;;;;6128109;23;20536;-82
2021/04/30 08:46:14;;;;;;;25.27;15.90;;;12.20;88.50;;;;;;6140241;23;20441;-84
2021/04/30 08:48:42;;;;;;;23.17;15.43;;;12.20;87.30;;;;;;6145520;23;20446;-83
2021/04/30 08:51:09;;;;;;;32.13;16.57;;;12.10;87.60;;;;;;6142910;23;20446;-83
2021/04/30 08:53:35;;;;;;;32.17;16.37;;;12.10;87.30;;;;;;6117221;23;20625;-84
2021/04/30 08:56:05;;;;;;;29.80;18.10;;;12.10;87.60;;;;;;6113326;23;20433;-83
2021/04/30 08:58:34;;;;;;;30.23;16.80;;;12.00;88.20;;;;;;6123189;23;20443;-83
2021/04/30 09:01:01;;;;;;;26.93;17.53;;;12.00;88.30;;;;;;6108484;23;20806;-83
2021/04/30 09:03:30;;;;;;;25.73;16.73;;;11.80;89.60;;;;;;6133015;23;20509;-84
2021/04/30 09:05:59;;;;;;;20.60;15.67;;;11.80;89.20;;;;;;6128466;23;20435;-84
2021/04/30 09:08:27;;;;;;;30.37;19.90;;;12.00;89.20;;;;;;6102516;23;20517;-84
2021/04/30 09:11:09;;;;;;;30.43;16.13;;;12.00;88.20;;;;;;6125981;23;20434;-83
2021/04/30 09:13:40;;;;;;;25.30;15.63;;;12.00;88.30;;;;;;6113351;23;20840;-83
2021/04/30 09:16:08;;;;;;;26.40;17.20;;;12.30;88.50;;;;;;6105207;23;20535;-84
2021/04/30 09:18:36;;;;;;;29.20;17.17;;;12.40;87.20;;;;;;6147183;23;20430;-84
2021/04/30 09:21:08;;;;;;;26.03;16.70;;;12.70;87.90;;;;;;6144420;23;20955;-83
2021/04/30 09:23:40;;;;;;;23.90;16.70;;;13.00;86.70;;;;;;6133591;23;20441;-84
2021/04/30 09:26:23;;;;;;;21.93;15.10;;;13.30;85.00;;;;;;6130870;23;20438;-84
2021/04/30 09:29:04;;;;;;;24.63;16.23;;;13.60;86.40;;;;;;6119764;23;20438;-84
2021/04/30 09:31:37;;;;;;;23.17;15.40;;;13.90;85.00;;;;;;6147471;23;20446;-84
2021/04/30 09:34:23;;;;;;;25.00;15.70;;;14.00;83.30;;;;;;6134577;23;20434;-84
2021/04/30 09:37:03;;;;;;;21.37;13.70;;;14.20;82.90;;;;;;6133582;23;20446;-84
2021/04/30 09:39:46;;;;;;;20.17;13.93;;;14.20;83.00;;;;;;6087148;23;20536;-84
2021/04/30 09:42:17;;;;;;;22.67;14.10;;;14.20;82.80;;;;;;6101602;23;20428;-84
2021/04/30 09:44:45;;;;;;;29.07;16.03;;;14.00;83.20;;;;;;6071197;23;20459;-84
2021/04/30 09:47:22;;;;;;;28.00;14.50;;;13.60;84.00;;;;;;6122849;23;20875;-83
2021/04/30 09:49:52;;;;;;;20.40;13.80;;;13.40;83.80;;;;;;6116303;23;20821;-84
2021/04/30 09:52:20;;;;;;;23.07;14.87;;;13.30;84.90;;;;;;6138437;23;20826;-84
2021/04/30 09:54:48;;;;;;;26.87;13.97;;;13.30;84.50;;;;;;6131213;23;20470;-84
2021/04/30 09:57:16;;;;;;;23.47;14.47;;;13.20;84.50;;;;;;6123849;23;20437;-84
2021/04/30 09:59:53;;;;;;;22.47;15.00;;;13.00;85.10;;;;;;6121219;23;20506;-84
2021/04/30 10:02:21;;;;;;;21.70;13.93;;;13.00;85.10;;;;;;6128066;23;20455;-84
2021/04/30 10:04:51;;;;;;;17.63;12.90;;;13.10;85.20;;;;;;6145906;23;20449;-84
2021/04/30 10:07:27;;;;;;;18.40;13.83;;;13.10;85.20;;;;;;6126732;23;20516;-85
2021/04/30 10:10:09;;;;;;;22.40;15.10;;;13.10;85.00;;;;;;6128881;23;20440;-84
2021/04/30 10:12:37;;;;;;;20.73;14.30;;;12.90;84.90;;;;;;6128712;23;20507;-84
2021/04/30 10:15:07;;;;;;;20.90;13.83;;;12.60;86.40;;;;;;6109992;23;20447;-84
2021/04/30 10:17:35;;;;;;;17.83;13.53;;;12.60;88.10;;;;;;6133455;23;20446;-82
2021/04/30 10:20:04;;;;;;;21.47;15.17;;;12.70;87.30;;;;;;6134316;23;20441;-84
2021/04/30 10:22:33;;;;;;;20.27;13.47;;;12.80;85.80;;;;;;6109292;23;21007;-83
2021/04/30 10:25:18;;;;;;;22.83;13.97;;;12.90;86.30;;;;;;6134491;23;21162;-83
2021/04/30 10:27:47;;;;;;;23.10;14.90;;;13.10;86.30;;;;;;6129477;23;20439;-84
2021/04/30 10:30:23;;;;;;;25.43;14.67;;;13.20;87.30;;;;;;6145619;23;20449;-82
2021/04/30 10:32:53;;;;;;;18.37;14.63;;;13.30;86.10;;;;;;6149203;23;20441;-83
2021/04/30 10:35:28;;;;;;;20.83;14.70;;;13.40;86.30;;;;;;6148019;23;20829;-83
2021/04/30 10:38:05;;;;;;;21.20;14.00;;;13.40;85.30;;;;;;6140062;23;20512;-82
2021/04/30 10:40:33;;;;;;;23.33;15.07;;;13.30;87.00;;;;;;6137088;23;20493;-83
2021/04/30 10:43:17;;;;;;;22.30;14.90;;;13.40;85.00;;;;;;6141394;23;20448;-83
2021/04/30 10:45:57;;;;;;;21.43;14.27;;;13.50;85.70;;;;;;6140314;23;20822;-83
2021/04/30 10:48:25;;;;;;;28.40;15.37;;;13.70;84.70;;;;;;6138382;23;20510;-82
2021/04/30 10:51:06;;;;;;;24.17;15.40;;;13.80;84.50;;;;;;6126146;23;20539;-83
2021/04/30 10:53:33;;;;;;;18.10;13.40;;;13.80;84.10;;;;;;6110599;23;20857;-83
2021/04/30 10:56:26;;;;;;;25.43;15.33;;;13.90;85.00;;;;;;6107289;23;20772;-83
2021/04/30 10:58:53;;;;;;;22.60;13.70;;;14.00;84.80;;;;;;6129020;23;20434;-83
2021/04/30 11:01:25;;;;;;;19.70;13.80;;;14.00;83.60;;;;;;6098527;23;20438;-83
2021/04/30 11:04:12;;;;;;;20.47;13.43;;;14.00;83.50;;;;;;6147275;23;20472;-83
2021/04/30 11:06:41;;;;;;;19.53;14.53;;;13.90;84.10;;;;;;6145868;23;20442;-83
2021/04/30 11:09:12;;;;;;;24.40;14.87;;;13.60;83.90;;;;;;6122646;23;20528;-83
2021/04/30 11:11:41;;;;;;;20.77;14.57;;;13.50;83.90;;;;;;6100243;23;20443;-84
2021/04/30 11:14:32;;;;;;;20.43;14.07;;;13.40;85.00;;;;;;6128022;23;20445;-84
2021/04/30 11:17:00;;;;;;;22.27;15.20;;;13.40;86.20;;;;;;6109795;23;20504;-83
2021/04/30 11:19:29;;;;;;;21.73;15.43;;;13.40;86.40;;;;;;6101801;23;20439;-84
2021/04/30 11:22:10;;;;;;;21.77;15.80;;;13.50;85.50;;;;;;6104801;23;20445;-83
2021/04/30 11:24:42;;;;;;;21.73;14.57;;;13.80;85.50;;;;;;6097275;23;20498;-83
2021/04/30 11:27:29;;;;;;;26.77;14.80;;;13.90;84.50;;;;;;6090308;23;20924;-83
2021/04/30 11:30:16;;;;;;;21.60;14.63;;;14.20;84.40;;;;;;6131605;23;20890;-83
2021/04/30 11:32:50;;;;;;;23.33;15.07;;;14.20;84.70;;;;;;6140167;23;20443;-83
2021/04/30 11:35:17;;;;;;;25.10;14.50;;;14.30;82.70;;;;;;6144237;23;20493;-84
2021/04/30 11:37:48;;;;;;;23.50;15.37;;;14.30;83.20;;;;;;6143796;23;20458;-83
2021/04/30 11:40:23;;;;;;;19.63;13.60;;;14.60;83.60;;;;;;6140802;23;20516;-83
2021/04/30 11:43:03;;;;;;;20.70;13.90;;;15.10;83.50;;;;;;6141244;23;20437;-84
2021/04/30 11:45:31;;;;;;;20.93;14.73;;;15.40;82.20;;;;;;6143315;23;20468;-83
2021/04/30 11:47:58;;;;;;;25.23;14.87;;;15.70;81.20;;;;;;6146618;23;20447;-83
2021/04/30 11:50:25;;;;;;;25.13;15.80;;;15.50;80.20;;;;;;6145468;23;20439;-84
2021/04/30 11:52:53;;;;;;;22.47;15.27;;;15.50;80.80;;;;;;6133783;23;20494;-83
2021/04/30 11:55:23;;;;;;;22.43;15.47;;;15.30;80.10;;;;;;6136235;23;20830;-83
2021/04/30 11:57:52;;;;;;;19.27;13.23;;;15.10;80.80;;;;;;6093957;23;20865;-83
2021/04/30 12:00:22;;;;;;;20.50;14.67;;;15.00;82.70;;;;;;6099422;23;20437;-83
2021/04/30 12:03:05;;;;;;;26.73;18.10;;;14.90;82.20;;;;;;6123254;23;20440;-83
2021/04/30 12:05:32;;;;;;;24.33;14.83;;;14.50;82.90;;;;;;6074782;23;20437;-83
2021/04/30 12:08:01;;;;;;;20.97;15.37;;;14.30;84.80;;;;;;6069238;23;20516;-83
2021/04/30 12:10:29;;;;;;;24.73;15.43;;;14.20;85.10;;;;;;6071322;23;20530;-83
2021/04/30 12:12:57;;;;;;;23.40;14.33;;;14.10;84.80;;;;;;6064465;23;21316;-83
2021/04/30 12:15:32;;;;;;;18.40;13.87;;;14.00;85.00;;;;;;6078612;23;20508;-84
2021/04/30 12:18:01;;;;;;;22.27;15.27;;;13.90;85.00;;;;;;6086889;23;20504;-83
2021/04/30 12:20:30;;;;;;;21.67;15.37;;;13.80;84.40;;;;;;6088038;23;20500;-84
2021/04/30 12:23:01;;;;;;;26.30;14.47;;;13.60;85.00;;;;;;6081321;23;20793;-82
2021/04/30 12:25:32;;;;;;;22.90;15.00;;;13.60;85.90;;;;;;6100242;23;20434;-83
2021/04/30 12:28:19;;;;;;;19.87;14.37;;;13.70;85.10;;;;;;6098342;23;20843;-82
2021/04/30 12:30:49;;;;;;;22.10;14.70;;;13.80;85.00;;;;;;6112222;23;20439;-82
2021/04/30 12:33:25;;;;;;;18.30;12.50;;;13.80;84.50;;;;;;6101588;23;21171;-82
2021/04/30 12:35:54;;;;;;;19.43;12.67;;;13.80;83.60;;;;;;6099067;23;20518;-82
2021/04/30 12:38:22;;;;;;;17.90;11.97;;;13.70;83.40;;;;;;6100663;23;20450;-82
2021/04/30 12:40:49;;;;;;;16.63;12.60;;;13.80;85.00;;;;;;6104816;23;20523;-83
2021/04/30 12:43:27;;;;;;;19.47;12.73;;;13.90;83.80;;;;;;6103304;23;20554;-83